createdAt,value
2019-05-17T00:05:03.632Z,11.73
2019-05-17T00:10:11.243Z,11.27
2019-05-17T00:15:19.678Z,11.40
2019-05-17T00:20:27.093Z,11.37
2019-05-17T00:25:36.674Z,10.43
2019-05-17T00:30:43.568Z,10.87
2019-05-17T00:35:51.066Z,10.67
2019-05-17T00:40:58.498Z,11.13
2019-05-17T00:46:06.666Z,10.80
2019-05-17T00:51:16.551Z,10.57
2019-05-17T00:56:23.152Z,10.87
2019-05-17T01:01:30.461Z,10.33
2019-05-17T01:06:37.821Z,9.90
2019-05-17T01:11:47.371Z,10.57
2019-05-17T01:16:56.503Z,10.50
2019-05-17T01:22:04.195Z,9.87
2019-05-17T01:27:11.662Z,10.13
2019-05-17T01:32:19.114Z,10.57
2019-05-17T01:37:27.696Z,10.53
2019-05-17T01:42:37.310Z,10.40
2019-05-17T01:47:44.243Z,10.43
2019-05-17T01:52:51.473Z,10.03
2019-05-17T01:57:58.904Z,10.30
2019-05-17T02:03:07.046Z,9.87
2019-05-17T02:08:16.917Z,9.97
2019-05-17T02:13:26.785Z,10.33
2019-05-17T03:00:06.843Z,9.83
2019-05-17T03:08:03.937Z,11.73
2019-05-17T03:15:38.545Z,11.57
2019-05-17T03:21:36.210Z,11.27
2019-05-17T03:26:45.025Z,12.17
2019-05-17T03:32:17.158Z,11.90
2019-05-17T03:37:29.970Z,12.03
2019-05-17T03:42:33.050Z,12.83
2019-05-17T03:47:43.943Z,12.30
2019-05-17T03:53:02.398Z,12.27
2019-05-17T06:22:08.796Z,11.93
2019-05-17T06:46:32.323Z,19.70
2019-05-17T06:52:57.629Z,14.63
2019-05-17T07:06:05.242Z,14.73
2019-05-17T07:11:21.064Z,12.47
2019-05-17T07:17:44.379Z,11.73
2019-05-17T07:32:19.299Z,12.73
2019-05-17T07:43:47.149Z,9.03
2019-05-17T07:59:11.856Z,7.33
2019-05-17T08:05:52.235Z,7.80
2019-05-17T08:11:01.580Z,7.27
2019-05-17T09:21:43.836Z,7.20
2019-05-17T09:26:55.449Z,5.43
2019-05-17T09:37:49.899Z,5.30
2019-05-17T09:44:20.548Z,5.40
2019-05-17T09:50:23.424Z,6.33
2019-05-17T09:58:41.525Z,6.20
2019-05-17T10:07:02.454Z,6.17
2019-05-17T10:14:27.433Z,5.77
2019-05-17T11:06:45.684Z,6.37
2019-05-17T11:12:21.807Z,7.10
2019-05-17T17:03:20.349Z,6.73
2019-05-17T18:52:23.098Z,10.45
2019-05-17T18:57:30.598Z,5.57
2019-05-17T19:04:07.876Z,5.10
2019-05-17T19:09:15.361Z,4.53
2019-05-17T19:14:25.547Z,5.30
2019-05-17T19:19:33.088Z,6.53
2019-05-17T19:24:40.661Z,6.27
2019-05-17T22:32:41.422Z,5.97
2019-05-17T22:37:48.860Z,5.87
